sensor_id;sensor_type;location;lat;lon;timestamp;P1;durP1;ratioP1;P2;durP2;ratioP2
15340;SDS011;7770;52.158;5.372;2022-11-30T00:02:10;34.33;;;30.13;;
15340;SDS011;7770;52.158;5.372;2022-11-30T00:04:56;32.40;;;29.00;;
15340;SDS011;7770;52.158;5.372;2022-11-30T00:07:41;34.07;;;30.47;;
15340;SDS011;7770;52.158;5.372;2022-11-30T00:10:27;33.73;;;29.73;;
15340;SDS011;7770;52.158;5.372;2022-11-30T00:13:13;33.03;;;29.47;;
15340;SDS011;7770;52.158;5.372;2022-11-30T00:16:00;34.10;;;30.50;;
15340;SDS011;7770;52.158;5.372;2022-11-30T00:18:46;32.20;;;28.77;;
15340;SDS011;7770;52.158;5.372;2022-11-30T00:21:32;32.53;;;29.00;;
15340;SDS011;7770;52.158;5.372;2022-11-30T00:24:18;33.97;;;30.37;;
15340;SDS011;7770;52.158;5.372;2022-11-30T00:27:04;32.97;;;29.40;;
15340;SDS011;7770;52.158;5.372;2022-11-30T00:29:50;34.97;;;30.80;;
15340;SDS011;7770;52.158;5.372;2022-11-30T00:32:36;33.47;;;29.77;;
15340;SDS011;7770;52.158;5.372;2022-11-30T00:35:22;33.90;;;28.47;;
15340;SDS011;7770;52.158;5.372;2022-11-30T00:38:08;33.57;;;29.97;;
15340;SDS011;7770;52.158;5.372;2022-11-30T00:40:54;32.47;;;29.00;;
15340;SDS011;7770;52.158;5.372;2022-11-30T00:43:41;32.33;;;28.87;;
15340;SDS011;7770;52.158;5.372;2022-11-30T00:46:27;35.10;;;29.10;;
15340;SDS011;7770;52.158;5.372;2022-11-30T00:49:13;31.93;;;28.53;;
15340;SDS011;7770;52.158;5.372;2022-11-30T00:51:59;34.97;;;30.33;;
15340;SDS011;7770;52.158;5.372;2022-11-30T00:54:45;37.60;;;31.70;;
15340;SDS011;7770;52.158;5.372;2022-11-30T00:57:31;36.43;;;32.47;;
15340;SDS011;7770;52.158;5.372;2022-11-30T01:00:17;35.87;;;31.83;;
15340;SDS011;7770;52.158;5.372;2022-11-30T01:03:04;37.20;;;32.03;;
15340;SDS011;7770;52.158;5.372;2022-11-30T01:05:50;38.13;;;32.77;;
15340;SDS011;7770;52.158;5.372;2022-11-30T01:08:36;38.00;;;33.73;;
15340;SDS011;7770;52.158;5.372;2022-11-30T01:11:23;35.63;;;31.00;;
15340;SDS011;7770;52.158;5.372;2022-11-30T01:14:14;36.07;;;32.07;;
15340;SDS011;7770;52.158;5.372;2022-11-30T01:17:00;36.27;;;31.73;;
15340;SDS011;7770;52.158;5.372;2022-11-30T01:19:46;35.93;;;32.03;;
15340;SDS011;7770;52.158;5.372;2022-11-30T01:22:32;37.03;;;32.03;;
15340;SDS011;7770;52.158;5.372;2022-11-30T01:25:19;35.83;;;30.83;;
15340;SDS011;7770;52.158;5.372;2022-11-30T01:28:05;35.20;;;31.40;;
15340;SDS011;7770;52.158;5.372;2022-11-30T01:30:54;36.73;;;32.47;;
15340;SDS011;7770;52.158;5.372;2022-11-30T01:33:49;36.40;;;31.27;;
15340;SDS011;7770;52.158;5.372;2022-11-30T01:36:37;35.50;;;31.00;;
15340;SDS011;7770;52.158;5.372;2022-11-30T01:39:23;36.67;;;32.10;;
15340;SDS011;7770;52.158;5.372;2022-11-30T01:42:13;36.03;;;31.43;;
15340;SDS011;7770;52.158;5.372;2022-11-30T01:45:02;37.23;;;31.67;;
15340;SDS011;7770;52.158;5.372;2022-11-30T01:47:52;37.57;;;32.30;;
15340;SDS011;7770;52.158;5.372;2022-11-30T01:50:41;34.60;;;30.70;;
15340;SDS011;7770;52.158;5.372;2022-11-30T01:53:28;36.63;;;30.70;;
15340;SDS011;7770;52.158;5.372;2022-11-30T01:56:14;37.83;;;31.00;;
15340;SDS011;7770;52.158;5.372;2022-11-30T01:59:02;35.93;;;32.10;;
15340;SDS011;7770;52.158;5.372;2022-11-30T02:01:48;34.93;;;31.03;;
15340;SDS011;7770;52.158;5.372;2022-11-30T02:04:35;39.53;;;32.53;;
15340;SDS011;7770;52.158;5.372;2022-11-30T02:07:23;36.30;;;32.40;;
15340;SDS011;7770;52.158;5.372;2022-11-30T02:10:13;35.33;;;31.33;;
15340;SDS011;7770;52.158;5.372;2022-11-30T02:33:01;36.60;;;32.13;;
15340;SDS011;7770;52.158;5.372;2022-11-30T02:35:52;38.47;;;31.83;;
15340;SDS011;7770;52.158;5.372;2022-11-30T02:38:39;38.50;;;33.50;;
15340;SDS011;7770;52.158;5.372;2022-11-30T02:41:33;38.97;;;32.37;;
15340;SDS011;7770;52.158;5.372;2022-11-30T02:44:21;38.13;;;32.53;;
15340;SDS011;7770;52.158;5.372;2022-11-30T02:47:14;40.47;;;32.70;;
15340;SDS011;7770;52.158;5.372;2022-11-30T02:50:29;40.60;;;33.37;;
15340;SDS011;7770;52.158;5.372;2022-11-30T02:53:21;42.33;;;33.70;;
15340;SDS011;7770;52.158;5.372;2022-11-30T02:56:08;41.80;;;32.73;;
15340;SDS011;7770;52.158;5.372;2022-11-30T02:58:54;40.13;;;33.17;;
15340;SDS011;7770;52.158;5.372;2022-11-30T03:01:40;42.37;;;34.00;;
15340;SDS011;7770;52.158;5.372;2022-11-30T03:04:26;43.30;;;34.27;;
15340;SDS011;7770;52.158;5.372;2022-11-30T03:07:12;40.33;;;33.77;;
15340;SDS011;7770;52.158;5.372;2022-11-30T03:09:58;40.53;;;32.77;;
15340;SDS011;7770;52.158;5.372;2022-11-30T03:12:44;44.47;;;35.13;;
15340;SDS011;7770;52.158;5.372;2022-11-30T03:15:30;42.47;;;34.60;;
15340;SDS011;7770;52.158;5.372;2022-11-30T03:18:16;40.83;;;34.03;;
15340;SDS011;7770;52.158;5.372;2022-11-30T03:21:06;44.20;;;34.50;;
15340;SDS011;7770;52.158;5.372;2022-11-30T03:23:54;41.63;;;33.87;;
15340;SDS011;7770;52.158;5.372;2022-11-30T03:26:40;44.77;;;34.23;;
15340;SDS011;7770;52.158;5.372;2022-11-30T03:29:26;43.43;;;33.20;;
15340;SDS011;7770;52.158;5.372;2022-11-30T03:32:12;41.67;;;34.30;;
15340;SDS011;7770;52.158;5.372;2022-11-30T03:34:58;42.93;;;34.30;;
15340;SDS011;7770;52.158;5.372;2022-11-30T03:37:44;44.37;;;34.03;;
15340;SDS011;7770;52.158;5.372;2022-11-30T03:40:31;43.30;;;34.63;;
15340;SDS011;7770;52.158;5.372;2022-11-30T03:43:17;40.97;;;32.77;;
15340;SDS011;7770;52.158;5.372;2022-11-30T03:46:03;42.47;;;33.20;;
15340;SDS011;7770;52.158;5.372;2022-11-30T03:48:49;41.67;;;32.63;;
15340;SDS011;7770;52.158;5.372;2022-11-30T03:51:35;38.63;;;31.63;;
15340;SDS011;7770;52.158;5.372;2022-11-30T03:54:21;39.67;;;31.93;;
15340;SDS011;7770;52.158;5.372;2022-11-30T03:57:07;36.27;;;30.37;;
15340;SDS011;7770;52.158;5.372;2022-11-30T03:59:53;38.63;;;32.03;;
15340;SDS011;7770;52.158;5.372;2022-11-30T04:02:40;39.87;;;31.47;;
15340;SDS011;7770;52.158;5.372;2022-11-30T04:05:26;38.43;;;30.57;;
15340;SDS011;7770;52.158;5.372;2022-11-30T04:08:12;38.40;;;30.90;;
15340;SDS011;7770;52.158;5.372;2022-11-30T04:10:58;39.53;;;31.87;;
15340;SDS011;7770;52.158;5.372;2022-11-30T04:13:46;39.73;;;31.70;;
15340;SDS011;7770;52.158;5.372;2022-11-30T04:16:32;39.83;;;31.53;;
15340;SDS011;7770;52.158;5.372;2022-11-30T04:19:18;40.70;;;31.17;;
15340;SDS011;7770;52.158;5.372;2022-11-30T04:22:04;39.33;;;31.77;;
15340;SDS011;7770;52.158;5.372;2022-11-30T04:24:50;39.77;;;30.53;;
15340;SDS011;7770;52.158;5.372;2022-11-30T04:27:36;42.90;;;31.00;;
15340;SDS011;7770;52.158;5.372;2022-11-30T04:30:22;41.60;;;32.10;;
15340;SDS011;7770;52.158;5.372;2022-11-30T04:33:08;41.67;;;31.87;;
15340;SDS011;7770;52.158;5.372;2022-11-30T04:35:55;42.53;;;31.57;;
15340;SDS011;7770;52.158;5.372;2022-11-30T04:38:43;39.43;;;30.43;;
15340;SDS011;7770;52.158;5.372;2022-11-30T04:41:30;43.20;;;31.87;;
15340;SDS011;7770;52.158;5.372;2022-11-30T04:44:16;45.97;;;32.57;;
15340;SDS011;7770;52.158;5.372;2022-11-30T04:47:02;42.07;;;31.50;;
15340;SDS011;7770;52.158;5.372;2022-11-30T04:49:48;40.67;;;31.57;;
15340;SDS011;7770;52.158;5.372;2022-11-30T04:52:34;43.33;;;31.90;;
15340;SDS011;7770;52.158;5.372;2022-11-30T04:55:20;40.67;;;31.20;;
15340;SDS011;7770;52.158;5.372;2022-11-30T04:58:06;46.70;;;30.47;;
15340;SDS011;7770;52.158;5.372;2022-11-30T05:00:52;40.23;;;30.23;;
15340;SDS011;7770;52.158;5.372;2022-11-30T05:03:39;41.53;;;31.20;;
15340;SDS011;7770;52.158;5.372;2022-11-30T05:06:25;40.47;;;31.53;;
15340;SDS011;7770;52.158;5.372;2022-11-30T05:09:11;40.20;;;29.37;;
15340;SDS011;7770;52.158;5.372;2022-11-30T05:11:57;38.60;;;30.57;;
15340;SDS011;7770;52.158;5.372;2022-11-30T05:14:43;42.20;;;32.20;;
15340;SDS011;7770;52.158;5.372;2022-11-30T05:17:29;37.97;;;30.00;;
15340;SDS011;7770;52.158;5.372;2022-11-30T05:20:15;44.67;;;30.83;;
15340;SDS011;7770;52.158;5.372;2022-11-30T05:23:01;37.67;;;29.60;;
15340;SDS011;7770;52.158;5.372;2022-11-30T05:25:47;37.40;;;30.13;;
15340;SDS011;7770;52.158;5.372;2022-11-30T05:28:34;39.87;;;32.07;;
15340;SDS011;7770;52.158;5.372;2022-11-30T05:31:20;39.37;;;29.53;;
15340;SDS011;7770;52.158;5.372;2022-11-30T05:34:07;38.60;;;30.50;;
15340;SDS011;7770;52.158;5.372;2022-11-30T05:36:53;41.67;;;31.10;;
15340;SDS011;7770;52.158;5.372;2022-11-30T05:39:39;41.87;;;31.07;;
15340;SDS011;7770;52.158;5.372;2022-11-30T05:42:25;37.90;;;30.83;;
15340;SDS011;7770;52.158;5.372;2022-11-30T05:45:11;39.47;;;30.00;;
15340;SDS011;7770;52.158;5.372;2022-11-30T05:47:57;39.70;;;31.60;;
15340;SDS011;7770;52.158;5.372;2022-11-30T05:50:43;45.53;;;31.90;;
15340;SDS011;7770;52.158;5.372;2022-11-30T05:53:29;41.57;;;31.33;;
15340;SDS011;7770;52.158;5.372;2022-11-30T05:56:16;46.07;;;31.83;;
15340;SDS011;7770;52.158;5.372;2022-11-30T05:59:04;40.97;;;30.83;;
15340;SDS011;7770;52.158;5.372;2022-11-30T06:01:50;42.87;;;29.70;;
15340;SDS011;7770;52.158;5.372;2022-11-30T06:04:37;41.83;;;30.17;;
15340;SDS011;7770;52.158;5.372;2022-11-30T06:07:23;39.63;;;29.50;;
15340;SDS011;7770;52.158;5.372;2022-11-30T06:10:09;42.13;;;29.70;;
15340;SDS011;7770;52.158;5.372;2022-11-30T06:12:56;42.47;;;30.37;;
15340;SDS011;7770;52.158;5.372;2022-11-30T06:15:42;40.90;;;29.60;;
15340;SDS011;7770;52.158;5.372;2022-11-30T06:18:28;40.23;;;30.70;;
15340;SDS011;7770;52.158;5.372;2022-11-30T06:21:14;38.57;;;29.57;;
15340;SDS011;7770;52.158;5.372;2022-11-30T06:24:01;39.40;;;29.37;;
15340;SDS011;7770;52.158;5.372;2022-11-30T06:26:46;35.87;;;28.33;;
15340;SDS011;7770;52.158;5.372;2022-11-30T06:29:33;36.43;;;26.80;;
15340;SDS011;7770;52.158;5.372;2022-11-30T06:32:18;37.67;;;26.90;;
15340;SDS011;7770;52.158;5.372;2022-11-30T06:35:05;36.83;;;27.63;;
15340;SDS011;7770;52.158;5.372;2022-11-30T06:37:51;39.50;;;29.67;;
15340;SDS011;7770;52.158;5.372;2022-11-30T06:40:37;38.13;;;27.90;;
15340;SDS011;7770;52.158;5.372;2022-11-30T06:43:23;40.97;;;29.47;;
15340;SDS011;7770;52.158;5.372;2022-11-30T06:46:09;40.47;;;29.70;;
15340;SDS011;7770;52.158;5.372;2022-11-30T06:48:55;46.33;;;30.40;;
15340;SDS011;7770;52.158;5.372;2022-11-30T06:51:41;41.87;;;29.63;;
15340;SDS011;7770;52.158;5.372;2022-11-30T06:54:28;42.60;;;30.90;;
15340;SDS011;7770;52.158;5.372;2022-11-30T06:57:14;44.00;;;30.27;;
15340;SDS011;7770;52.158;5.372;2022-11-30T07:00:00;74.73;;;33.53;;
15340;SDS011;7770;52.158;5.372;2022-11-30T07:02:46;50.90;;;33.80;;
15340;SDS011;7770;52.158;5.372;2022-11-30T07:05:33;50.47;;;33.10;;
15340;SDS011;7770;52.158;5.372;2022-11-30T07:08:24;49.40;;;32.90;;
15340;SDS011;7770;52.158;5.372;2022-11-30T07:11:11;48.13;;;32.10;;
15340;SDS011;7770;52.158;5.372;2022-11-30T07:13:57;45.00;;;31.23;;
15340;SDS011;7770;52.158;5.372;2022-11-30T07:16:43;47.00;;;32.17;;
15340;SDS011;7770;52.158;5.372;2022-11-30T07:19:29;43.90;;;31.80;;
15340;SDS011;7770;52.158;5.372;2022-11-30T07:22:18;48.93;;;31.93;;
15340;SDS011;7770;52.158;5.372;2022-11-30T07:25:04;44.67;;;30.43;;
15340;SDS011;7770;52.158;5.372;2022-11-30T07:28:09;43.27;;;30.83;;
15340;SDS011;7770;52.158;5.372;2022-11-30T07:30:55;40.33;;;30.53;;
15340;SDS011;7770;52.158;5.372;2022-11-30T07:33:41;38.70;;;29.23;;
15340;SDS011;7770;52.158;5.372;2022-11-30T07:36:27;41.70;;;29.70;;
15340;SDS011;7770;52.158;5.372;2022-11-30T07:39:14;41.03;;;28.67;;
15340;SDS011;7770;52.158;5.372;2022-11-30T07:42:00;40.17;;;28.73;;
15340;SDS011;7770;52.158;5.372;2022-11-30T07:44:46;42.30;;;28.93;;
15340;SDS011;7770;52.158;5.372;2022-11-30T07:47:32;38.60;;;29.23;;
15340;SDS011;7770;52.158;5.372;2022-11-30T07:50:18;39.70;;;27.57;;
15340;SDS011;7770;52.158;5.372;2022-11-30T07:53:04;35.77;;;27.63;;
15340;SDS011;7770;52.158;5.372;2022-11-30T07:55:50;39.17;;;28.30;;
15340;SDS011;7770;52.158;5.372;2022-11-30T07:58:36;34.87;;;27.77;;
15340;SDS011;7770;52.158;5.372;2022-11-30T08:01:24;34.80;;;28.00;;
15340;SDS011;7770;52.158;5.372;2022-11-30T08:04:13;38.20;;;27.27;;
15340;SDS011;7770;52.158;5.372;2022-11-30T08:06:59;35.27;;;27.30;;
15340;SDS011;7770;52.158;5.372;2022-11-30T08:09:45;36.53;;;27.63;;
15340;SDS011;7770;52.158;5.372;2022-11-30T08:12:33;39.13;;;28.63;;
15340;SDS011;7770;52.158;5.372;2022-11-30T08:15:19;39.20;;;28.10;;
15340;SDS011;7770;52.158;5.372;2022-11-30T08:18:05;50.30;;;30.07;;
15340;SDS011;7770;52.158;5.372;2022-11-30T08:20:58;47.23;;;32.10;;
15340;SDS011;7770;52.158;5.372;2022-11-30T08:23:47;93.03;;;34.60;;
15340;SDS011;7770;52.158;5.372;2022-11-30T08:26:37;58.37;;;33.60;;
15340;SDS011;7770;52.158;5.372;2022-11-30T08:29:23;52.43;;;32.90;;
15340;SDS011;7770;52.158;5.372;2022-11-30T08:32:09;54.77;;;32.40;;
15340;SDS011;7770;52.158;5.372;2022-11-30T08:34:55;45.23;;;31.93;;
15340;SDS011;7770;52.158;5.372;2022-11-30T08:37:41;42.20;;;31.17;;
15340;SDS011;7770;52.158;5.372;2022-11-30T08:40:27;43.10;;;32.10;;
15340;SDS011;7770;52.158;5.372;2022-11-30T08:43:13;38.23;;;30.80;;
15340;SDS011;7770;52.158;5.372;2022-11-30T08:46:03;40.50;;;30.83;;
15340;SDS011;7770;52.158;5.372;2022-11-30T08:48:51;39.37;;;30.07;;
15340;SDS011;7770;52.158;5.372;2022-11-30T08:51:38;38.57;;;31.40;;
15340;SDS011;7770;52.158;5.372;2022-11-30T08:54:24;36.97;;;28.63;;
15340;SDS011;7770;52.158;5.372;2022-11-30T08:57:11;41.07;;;31.47;;
15340;SDS011;7770;52.158;5.372;2022-11-30T08:59:59;38.27;;;30.43;;
15340;SDS011;7770;52.158;5.372;2022-11-30T09:02:45;38.23;;;31.13;;
15340;SDS011;7770;52.158;5.372;2022-11-30T09:05:31;37.83;;;30.57;;
15340;SDS011;7770;52.158;5.372;2022-11-30T09:08:17;39.83;;;30.73;;
15340;SDS011;7770;52.158;5.372;2022-11-30T09:11:08;38.20;;;30.47;;
15340;SDS011;7770;52.158;5.372;2022-11-30T09:14:04;38.27;;;32.27;;
15340;SDS011;7770;52.158;5.372;2022-11-30T09:16:51;37.10;;;31.03;;
15340;SDS011;7770;52.158;5.372;2022-11-30T09:19:38;36.40;;;29.80;;
15340;SDS011;7770;52.158;5.372;2022-11-30T09:22:24;34.87;;;28.60;;
15340;SDS011;7770;52.158;5.372;2022-11-30T09:25:12;33.47;;;28.40;;
15340;SDS011;7770;52.158;5.372;2022-11-30T09:27:57;35.40;;;30.23;;
15340;SDS011;7770;52.158;5.372;2022-11-30T09:30:43;35.53;;;29.77;;
15340;SDS011;7770;52.158;5.372;2022-11-30T09:33:29;35.37;;;29.67;;
15340;SDS011;7770;52.158;5.372;2022-11-30T09:36:16;36.10;;;30.40;;
15340;SDS011;7770;52.158;5.372;2022-11-30T09:39:05;34.57;;;29.03;;
15340;SDS011;7770;52.158;5.372;2022-11-30T09:51:45;35.23;;;28.80;;
15340;SDS011;7770;52.158;5.372;2022-11-30T09:54:37;34.73;;;30.77;;
15340;SDS011;7770;52.158;5.372;2022-11-30T10:00:17;34.80;;;29.80;;
15340;SDS011;7770;52.158;5.372;2022-11-30T10:03:09;35.93;;;30.40;;
15340;SDS011;7770;52.158;5.372;2022-11-30T10:06:06;38.43;;;31.10;;
15340;SDS011;7770;52.158;5.372;2022-11-30T10:18:21;38.57;;;33.77;;
15340;SDS011;7770;52.158;5.372;2022-11-30T10:31:09;39.70;;;35.43;;
15340;SDS011;7770;52.158;5.372;2022-11-30T10:34:02;34.30;;;30.70;;
15340;SDS011;7770;52.158;5.372;2022-11-30T10:37:14;36.73;;;32.93;;
15340;SDS011;7770;52.158;5.372;2022-11-30T10:44:02;37.13;;;33.10;;
15340;SDS011;7770;52.158;5.372;2022-11-30T10:46:58;37.17;;;32.30;;
15340;SDS011;7770;52.158;5.372;2022-11-30T10:50:09;35.70;;;31.90;;
15340;SDS011;7770;52.158;5.372;2022-11-30T10:53:00;35.97;;;32.27;;
15340;SDS011;7770;52.158;5.372;2022-11-30T10:55:58;35.97;;;32.23;;
15340;SDS011;7770;52.158;5.372;2022-11-30T10:58:53;34.77;;;31.17;;
15340;SDS011;7770;52.158;5.372;2022-11-30T11:01:45;35.87;;;31.97;;
15340;SDS011;7770;52.158;5.372;2022-11-30T11:04:31;34.30;;;30.80;;
15340;SDS011;7770;52.158;5.372;2022-11-30T11:07:17;34.33;;;30.63;;
15340;SDS011;7770;52.158;5.372;2022-11-30T11:10:03;35.20;;;31.43;;
15340;SDS011;7770;52.158;5.372;2022-11-30T11:12:51;34.30;;;30.63;;
15340;SDS011;7770;52.158;5.372;2022-11-30T11:15:39;35.20;;;31.40;;
15340;SDS011;7770;52.158;5.372;2022-11-30T11:18:26;32.70;;;29.43;;
15340;SDS011;7770;52.158;5.372;2022-11-30T11:21:17;34.63;;;30.50;;
15340;SDS011;7770;52.158;5.372;2022-11-30T11:24:07;34.27;;;30.57;;
15340;SDS011;7770;52.158;5.372;2022-11-30T11:26:55;34.03;;;30.37;;
15340;SDS011;7770;52.158;5.372;2022-11-30T11:29:42;32.33;;;28.83;;
15340;SDS011;7770;52.158;5.372;2022-11-30T11:32:28;32.60;;;29.03;;
15340;SDS011;7770;52.158;5.372;2022-11-30T11:35:31;35.60;;;31.60;;
15340;SDS011;7770;52.158;5.372;2022-11-30T11:38:39;33.07;;;29.50;;
15340;SDS011;7770;52.158;5.372;2022-11-30T11:41:29;33.63;;;29.93;;
15340;SDS011;7770;52.158;5.372;2022-11-30T11:44:21;32.33;;;28.93;;
15340;SDS011;7770;52.158;5.372;2022-11-30T11:47:20;31.07;;;27.77;;
15340;SDS011;7770;52.158;5.372;2022-11-30T11:50:24;33.17;;;29.67;;
15340;SDS011;7770;52.158;5.372;2022-11-30T11:53:19;35.10;;;30.53;;
15340;SDS011;7770;52.158;5.372;2022-11-30T11:59:12;31.13;;;27.83;;
15340;SDS011;7770;52.158;5.372;2022-11-30T12:05:39;30.83;;;27.50;;
15340;SDS011;7770;52.158;5.372;2022-11-30T12:08:45;34.30;;;30.17;;
15340;SDS011;7770;52.158;5.372;2022-11-30T12:11:41;32.07;;;28.63;;
15340;SDS011;7770;52.158;5.372;2022-11-30T12:14:30;34.57;;;30.93;;
15340;SDS011;7770;52.158;5.372;2022-11-30T12:17:29;36.00;;;32.20;;
15340;SDS011;7770;52.158;5.372;2022-11-30T12:20:53;35.33;;;31.23;;
15340;SDS011;7770;52.158;5.372;2022-11-30T12:37:08;32.47;;;28.97;;
15340;SDS011;7770;52.158;5.372;2022-11-30T12:43:45;31.97;;;27.97;;
15340;SDS011;7770;52.158;5.372;2022-11-30T12:46:50;31.93;;;28.43;;
15340;SDS011;7770;52.158;5.372;2022-11-30T12:50:03;32.77;;;29.03;;
15340;SDS011;7770;52.158;5.372;2022-11-30T12:53:02;33.00;;;28.57;;
15340;SDS011;7770;52.158;5.372;2022-11-30T12:59:14;34.57;;;30.70;;
15340;SDS011;7770;52.158;5.372;2022-11-30T13:02:30;36.30;;;31.27;;
15340;SDS011;7770;52.158;5.372;2022-11-30T13:05:36;34.93;;;30.67;;
15340;SDS011;7770;52.158;5.372;2022-11-30T13:12:04;35.83;;;30.83;;
15340;SDS011;7770;52.158;5.372;2022-11-30T13:15:13;34.43;;;30.50;;
15340;SDS011;7770;52.158;5.372;2022-11-30T13:18:05;35.73;;;31.03;;
15340;SDS011;7770;52.158;5.372;2022-11-30T13:20:54;35.90;;;30.87;;
15340;SDS011;7770;52.158;5.372;2022-11-30T13:24:03;35.77;;;30.67;;
15340;SDS011;7770;52.158;5.372;2022-11-30T13:27:00;35.93;;;30.10;;
15340;SDS011;7770;52.158;5.372;2022-11-30T13:39:25;35.23;;;29.90;;
15340;SDS011;7770;52.158;5.372;2022-11-30T13:45:26;34.30;;;29.33;;
15340;SDS011;7770;52.158;5.372;2022-11-30T13:48:29;34.13;;;29.53;;
15340;SDS011;7770;52.158;5.372;2022-11-30T13:51:32;35.63;;;29.90;;
15340;SDS011;7770;52.158;5.372;2022-11-30T13:54:38;35.13;;;28.93;;
15340;SDS011;7770;52.158;5.372;2022-11-30T14:06:43;31.23;;;26.03;;
15340;SDS011;7770;52.158;5.372;2022-11-30T14:15:26;29.80;;;24.50;;
15340;SDS011;7770;52.158;5.372;2022-11-30T14:18:38;28.50;;;23.47;;
15340;SDS011;7770;52.158;5.372;2022-11-30T14:21:31;30.40;;;24.83;;
15340;SDS011;7770;52.158;5.372;2022-11-30T14:24:20;30.27;;;23.57;;
15340;SDS011;7770;52.158;5.372;2022-11-30T14:27:08;29.17;;;23.73;;
15340;SDS011;7770;52.158;5.372;2022-11-30T14:30:03;31.00;;;24.43;;
15340;SDS011;7770;52.158;5.372;2022-11-30T14:32:51;33.47;;;24.93;;
15340;SDS011;7770;52.158;5.372;2022-11-30T14:35:46;28.40;;;23.37;;
15340;SDS011;7770;52.158;5.372;2022-11-30T14:38:39;32.87;;;24.73;;
15340;SDS011;7770;52.158;5.372;2022-11-30T14:41:27;29.93;;;23.87;;
15340;SDS011;7770;52.158;5.372;2022-11-30T14:44:15;28.97;;;23.67;;
15340;SDS011;7770;52.158;5.372;2022-11-30T14:47:14;32.00;;;24.90;;
15340;SDS011;7770;52.158;5.372;2022-11-30T14:50:12;27.37;;;22.17;;
15340;SDS011;7770;52.158;5.372;2022-11-30T14:53:15;27.87;;;21.93;;
15340;SDS011;7770;52.158;5.372;2022-11-30T14:56:36;27.10;;;22.07;;
15340;SDS011;7770;52.158;5.372;2022-11-30T15:02:35;29.40;;;23.27;;
15340;SDS011;7770;52.158;5.372;2022-11-30T15:05:23;30.63;;;23.63;;
15340;SDS011;7770;52.158;5.372;2022-11-30T15:08:14;30.83;;;24.43;;
15340;SDS011;7770;52.158;5.372;2022-11-30T15:11:05;28.30;;;23.37;;
15340;SDS011;7770;52.158;5.372;2022-11-30T15:13:55;31.80;;;25.33;;
15340;SDS011;7770;52.158;5.372;2022-11-30T15:16:53;33.87;;;25.00;;
15340;SDS011;7770;52.158;5.372;2022-11-30T15:19:45;31.67;;;24.63;;
15340;SDS011;7770;52.158;5.372;2022-11-30T15:22:32;33.17;;;25.43;;
15340;SDS011;7770;52.158;5.372;2022-11-30T15:25:19;33.27;;;25.80;;
15340;SDS011;7770;52.158;5.372;2022-11-30T15:28:09;30.63;;;24.93;;
15340;SDS011;7770;52.158;5.372;2022-11-30T15:31:00;31.70;;;26.03;;
15340;SDS011;7770;52.158;5.372;2022-11-30T15:33:51;34.00;;;25.43;;
15340;SDS011;7770;52.158;5.372;2022-11-30T15:36:37;32.70;;;26.60;;
15340;SDS011;7770;52.158;5.372;2022-11-30T15:39:24;34.57;;;27.77;;
15340;SDS011;7770;52.158;5.372;2022-11-30T15:42:19;33.70;;;26.40;;
15340;SDS011;7770;52.158;5.372;2022-11-30T15:48:24;32.60;;;26.53;;
15340;SDS011;7770;52.158;5.372;2022-11-30T15:51:20;35.53;;;27.90;;
15340;SDS011;7770;52.158;5.372;2022-11-30T15:54:08;38.77;;;29.13;;
15340;SDS011;7770;52.158;5.372;2022-11-30T15:56:55;36.00;;;27.73;;
15340;SDS011;7770;52.158;5.372;2022-11-30T15:59:42;38.27;;;28.37;;
15340;SDS011;7770;52.158;5.372;2022-11-30T16:02:33;37.07;;;29.40;;
15340;SDS011;7770;52.158;5.372;2022-11-30T16:05:21;38.43;;;29.83;;
15340;SDS011;7770;52.158;5.372;2022-11-30T16:08:15;39.70;;;31.17;;
15340;SDS011;7770;52.158;5.372;2022-11-30T16:11:03;38.67;;;30.13;;
15340;SDS011;7770;52.158;5.372;2022-11-30T16:13:49;34.43;;;27.87;;
15340;SDS011;7770;52.158;5.372;2022-11-30T16:16:35;34.47;;;28.67;;
15340;SDS011;7770;52.158;5.372;2022-11-30T16:19:21;36.30;;;28.30;;
15340;SDS011;7770;52.158;5.372;2022-11-30T16:22:09;37.37;;;28.13;;
15340;SDS011;7770;52.158;5.372;2022-11-30T16:24:57;35.17;;;28.53;;
15340;SDS011;7770;52.158;5.372;2022-11-30T16:27:43;35.97;;;29.00;;
15340;SDS011;7770;52.158;5.372;2022-11-30T16:30:29;36.23;;;29.53;;
15340;SDS011;7770;52.158;5.372;2022-11-30T16:33:21;34.60;;;28.63;;
15340;SDS011;7770;52.158;5.372;2022-11-30T16:36:13;36.73;;;29.00;;
15340;SDS011;7770;52.158;5.372;2022-11-30T16:39:04;36.10;;;28.30;;
15340;SDS011;7770;52.158;5.372;2022-11-30T16:41:50;38.97;;;30.07;;
15340;SDS011;7770;52.158;5.372;2022-11-30T16:44:36;38.03;;;31.53;;
15340;SDS011;7770;52.158;5.372;2022-11-30T16:47:23;37.47;;;30.80;;
15340;SDS011;7770;52.158;5.372;2022-11-30T16:50:09;38.27;;;30.60;;
15340;SDS011;7770;52.158;5.372;2022-11-30T16:52:57;40.93;;;31.70;;
15340;SDS011;7770;52.158;5.372;2022-11-30T16:55:43;39.13;;;31.47;;
15340;SDS011;7770;52.158;5.372;2022-11-30T16:58:29;40.63;;;32.40;;
15340;SDS011;7770;52.158;5.372;2022-11-30T17:04:21;37.83;;;30.73;;
15340;SDS011;7770;52.158;5.372;2022-11-30T17:07:08;40.70;;;32.00;;
15340;SDS011;7770;52.158;5.372;2022-11-30T17:09:54;41.40;;;32.87;;
15340;SDS011;7770;52.158;5.372;2022-11-30T17:12:40;42.60;;;33.57;;
15340;SDS011;7770;52.158;5.372;2022-11-30T17:15:26;43.93;;;35.00;;
15340;SDS011;7770;52.158;5.372;2022-11-30T17:18:12;46.97;;;36.30;;
15340;SDS011;7770;52.158;5.372;2022-11-30T17:20:59;46.57;;;35.10;;
15340;SDS011;7770;52.158;5.372;2022-11-30T17:23:45;44.93;;;35.93;;
15340;SDS011;7770;52.158;5.372;2022-11-30T17:26:31;48.47;;;37.60;;
15340;SDS011;7770;52.158;5.372;2022-11-30T17:29:17;53.57;;;38.73;;
15340;SDS011;7770;52.158;5.372;2022-11-30T17:32:03;52.83;;;39.37;;
15340;SDS011;7770;52.158;5.372;2022-11-30T17:34:49;52.70;;;37.07;;
15340;SDS011;7770;52.158;5.372;2022-11-30T17:37:35;49.90;;;37.13;;
15340;SDS011;7770;52.158;5.372;2022-11-30T17:40:21;49.93;;;37.47;;
15340;SDS011;7770;52.158;5.372;2022-11-30T17:43:07;53.47;;;37.70;;
15340;SDS011;7770;52.158;5.372;2022-11-30T17:45:53;51.50;;;38.97;;
15340;SDS011;7770;52.158;5.372;2022-11-30T17:48:39;51.60;;;37.53;;
15340;SDS011;7770;52.158;5.372;2022-11-30T17:51:26;55.43;;;39.80;;
15340;SDS011;7770;52.158;5.372;2022-11-30T17:54:12;59.13;;;43.83;;
15340;SDS011;7770;52.158;5.372;2022-11-30T17:56:58;61.97;;;42.50;;
15340;SDS011;7770;52.158;5.372;2022-11-30T17:59:44;63.87;;;44.73;;
15340;SDS011;7770;52.158;5.372;2022-11-30T18:02:30;60.47;;;44.73;;
15340;SDS011;7770;52.158;5.372;2022-11-30T18:05:16;64.07;;;46.70;;
15340;SDS011;7770;52.158;5.372;2022-11-30T18:08:03;65.50;;;46.77;;
15340;SDS011;7770;52.158;5.372;2022-11-30T18:10:49;65.27;;;45.77;;
15340;SDS011;7770;52.158;5.372;2022-11-30T18:13:36;61.53;;;45.30;;
15340;SDS011;7770;52.158;5.372;2022-11-30T18:16:27;68.10;;;45.67;;
15340;SDS011;7770;52.158;5.372;2022-11-30T18:19:16;70.07;;;50.73;;
15340;SDS011;7770;52.158;5.372;2022-11-30T18:22:02;65.67;;;47.37;;
15340;SDS011;7770;52.158;5.372;2022-11-30T18:24:48;71.23;;;51.67;;
15340;SDS011;7770;52.158;5.372;2022-11-30T18:27:34;71.27;;;52.17;;
15340;SDS011;7770;52.158;5.372;2022-11-30T18:30:20;66.23;;;49.40;;
15340;SDS011;7770;52.158;5.372;2022-11-30T18:33:06;72.53;;;50.27;;
15340;SDS011;7770;52.158;5.372;2022-11-30T18:35:56;71.70;;;50.63;;
15340;SDS011;7770;52.158;5.372;2022-11-30T18:38:43;69.60;;;50.33;;
15340;SDS011;7770;52.158;5.372;2022-11-30T18:41:29;66.83;;;50.23;;
15340;SDS011;7770;52.158;5.372;2022-11-30T18:44:15;67.17;;;49.27;;
15340;SDS011;7770;52.158;5.372;2022-11-30T18:47:01;66.37;;;47.03;;